createdAt,value
2019-02-26T00:01:01.610Z,44.67
2019-02-26T00:03:31.399Z,43.58
2019-02-26T00:06:02.075Z,40.12
2019-02-26T00:08:33.533Z,42.25
2019-02-26T00:11:03.734Z,46.63
2019-02-26T00:13:34.621Z,44.77
2019-02-26T00:16:07.678Z,44.20
2019-02-26T00:18:35.373Z,40.70
2019-02-26T00:21:04.995Z,45.00
2019-02-26T00:23:34.193Z,44.03
2019-02-26T00:26:03.115Z,41.75
2019-02-26T00:28:34.042Z,46.90
2019-02-26T00:31:03.859Z,41.88
2019-02-26T00:33:33.549Z,41.18
2019-02-26T00:36:04.349Z,39.13
2019-02-26T00:38:35.327Z,37.15
2019-02-26T00:41:04.361Z,36.97
2019-02-26T00:43:36.436Z,35.05
2019-02-26T00:46:08.008Z,30.10
2019-02-26T00:48:38.397Z,34.70
2019-02-26T00:51:07.528Z,34.60
2019-02-26T00:53:36.416Z,34.13
2019-02-26T00:56:07.426Z,36.23
2019-02-26T00:58:38.876Z,35.05
2019-02-26T01:01:10.266Z,32.93
2019-02-26T01:03:37.395Z,34.15
2019-02-26T01:06:08.006Z,29.80
2019-02-26T01:08:37.932Z,30.68
2019-02-26T01:11:08.440Z,28.57
2019-02-26T01:13:37.784Z,30.10
2019-02-26T01:16:06.836Z,29.05
2019-02-26T01:18:35.697Z,31.50
2019-02-26T01:21:05.628Z,28.95
2019-02-26T01:23:34.522Z,27.65
2019-02-26T01:26:03.444Z,26.73
2019-02-26T01:28:32.297Z,23.22
2019-02-26T01:31:29.284Z,23.83
2019-02-26T01:33:59.988Z,28.42
2019-02-26T01:36:29.102Z,29.80
2019-02-26T01:38:58.026Z,28.75
2019-02-26T01:41:27.560Z,30.17
2019-02-26T01:43:56.422Z,29.63
2019-02-26T01:46:25.312Z,29.72
2019-02-26T01:48:55.222Z,30.23
2019-02-26T01:51:26.145Z,31.23
2019-02-26T01:53:55.767Z,31.60
2019-02-26T01:56:24.629Z,32.67
2019-02-26T01:58:56.534Z,32.03
2019-02-26T02:01:26.193Z,31.07
2019-02-26T02:03:56.143Z,33.00
2019-02-26T02:06:25.440Z,33.50
2019-02-26T02:08:55.694Z,32.78
2019-02-26T02:11:28.449Z,36.10
2019-02-26T02:13:55.826Z,33.25
2019-02-26T02:16:26.800Z,34.18
2019-02-26T02:18:57.583Z,34.43
2019-02-26T02:21:28.397Z,35.75
2019-02-26T02:24:12.446Z,33.42
2019-02-26T02:26:41.089Z,32.53
2019-02-26T02:29:12.617Z,35.25
2019-02-26T02:31:41.517Z,34.05
2019-02-26T02:34:10.553Z,34.63
2019-02-26T02:36:39.500Z,35.70
2019-02-26T02:39:12.911Z,36.73
2019-02-26T02:41:40.061Z,35.05
2019-02-26T02:44:12.380Z,37.48
2019-02-26T02:46:42.496Z,38.33
2019-02-26T02:49:13.246Z,39.27
2019-02-26T02:51:42.268Z,37.67
2019-02-26T02:54:12.123Z,32.83
2019-02-26T02:56:44.308Z,33.13
2019-02-26T02:59:14.116Z,33.78
2019-02-26T03:01:49.570Z,36.25
2019-02-26T03:04:19.771Z,37.17
2019-02-26T03:06:50.167Z,36.88
2019-02-26T03:09:20.144Z,37.28
2019-02-26T03:11:50.454Z,36.68
2019-02-26T03:14:19.725Z,37.85
2019-02-26T03:16:50.982Z,37.35
2019-02-26T03:19:19.277Z,39.18
2019-02-26T03:21:49.620Z,36.93
2019-02-26T03:24:19.080Z,35.55
2019-02-26T03:26:48.087Z,37.38
2019-02-26T03:29:17.568Z,38.70
2019-02-26T03:31:54.813Z,38.48
2019-02-26T03:34:21.735Z,39.18
2019-02-26T03:36:48.361Z,38.17
2019-02-26T03:39:17.353Z,34.92
2019-02-26T03:41:48.499Z,34.45
2019-02-26T03:44:17.371Z,38.42
2019-02-26T03:46:46.266Z,32.80
2019-02-26T03:49:15.225Z,30.12
2019-02-26T03:51:44.153Z,34.93
2019-02-26T03:54:13.144Z,31.90
2019-02-26T03:56:42.065Z,30.00
2019-02-26T03:59:11.706Z,29.52
2019-02-26T04:01:41.008Z,28.77
2019-02-26T04:04:10.027Z,25.80
2019-02-26T04:06:40.957Z,24.45
2019-02-26T04:09:11.173Z,26.10
2019-02-26T04:11:44.863Z,25.35
2019-02-26T04:14:12.592Z,25.25
2019-02-26T04:16:43.601Z,27.13
2019-02-26T04:19:13.665Z,26.73
2019-02-26T04:22:21.032Z,28.60
2019-02-26T04:24:50.046Z,27.80
2019-02-26T04:27:50.319Z,27.75
2019-02-26T04:31:07.345Z,29.15
2019-02-26T04:34:32.693Z,28.10
2019-02-26T04:37:38.487Z,26.77
2019-02-26T04:40:27.206Z,29.37
2019-02-26T04:43:52.509Z,27.95
2019-02-26T04:47:06.023Z,29.42
2019-02-26T04:49:38.357Z,28.15
2019-02-26T04:52:10.301Z,28.40
2019-02-26T04:54:39.584Z,29.65
2019-02-26T04:57:08.003Z,29.37
2019-02-26T04:59:38.744Z,28.98
2019-02-26T05:02:07.815Z,32.95
2019-02-26T05:04:39.454Z,30.85
2019-02-26T05:07:12.822Z,31.42
2019-02-26T05:09:39.978Z,31.00
2019-02-26T05:12:08.996Z,33.25
2019-02-26T05:14:38.339Z,31.97
2019-02-26T05:17:07.370Z,28.62
2019-02-26T05:19:39.263Z,30.48
2019-02-26T05:22:07.363Z,30.68
2019-02-26T05:24:37.911Z,33.35
2019-02-26T05:27:19.749Z,31.60
2019-02-26T05:29:49.045Z,33.33
2019-02-26T05:32:18.789Z,31.17
2019-02-26T05:34:54.869Z,31.42
2019-02-26T05:37:29.044Z,32.63
2019-02-26T05:39:57.277Z,31.20
2019-02-26T05:42:26.361Z,30.12
2019-02-26T05:44:59.143Z,30.75
2019-02-26T05:47:26.694Z,28.38
2019-02-26T05:49:59.621Z,26.85
2019-02-26T05:52:30.629Z,27.58
2019-02-26T05:55:00.418Z,28.73
2019-02-26T05:57:32.621Z,24.20
2019-02-26T06:00:01.842Z,27.25
2019-02-26T06:02:39.488Z,29.05
2019-02-26T06:05:07.752Z,23.70
2019-02-26T06:07:38.894Z,27.62
2019-02-26T06:10:09.046Z,25.15
2019-02-26T06:12:40.508Z,25.12
2019-02-26T06:15:11.777Z,23.47
2019-02-26T06:17:45.230Z,25.02
2019-02-26T06:20:15.791Z,26.25
2019-02-26T06:22:44.797Z,23.97
2019-02-26T06:25:19.050Z,25.60
2019-02-26T06:27:44.740Z,24.63
2019-02-26T06:30:14.458Z,23.27
2019-02-26T06:32:44.647Z,24.60
2019-02-26T06:35:16.484Z,24.43
2019-02-26T06:37:45.983Z,25.72
2019-02-26T06:40:15.066Z,24.30
2019-02-26T06:42:44.008Z,25.12
2019-02-26T06:45:16.849Z,25.85
2019-02-26T06:47:48.646Z,24.32
2019-02-26T06:50:18.929Z,24.27
2019-02-26T06:52:50.584Z,24.55
2019-02-26T06:55:19.063Z,25.50
2019-02-26T06:57:50.917Z,24.82
2019-02-26T07:00:21.582Z,25.75
2019-02-26T07:02:49.448Z,28.47
2019-02-26T07:05:18.448Z,26.20
2019-02-26T07:07:47.348Z,28.85
2019-02-26T07:10:18.763Z,29.42
2019-02-26T07:12:48.877Z,29.05
2019-02-26T07:15:17.668Z,26.17
2019-02-26T07:17:46.578Z,27.70
2019-02-26T07:20:15.420Z,29.07
2019-02-26T07:22:46.776Z,32.07
2019-02-26T07:25:16.480Z,30.12
2019-02-26T07:27:45.956Z,31.47
2019-02-26T07:30:15.029Z,28.90
2019-02-26T07:32:46.170Z,32.23
2019-02-26T07:35:16.712Z,28.15
2019-02-26T07:37:45.575Z,28.67
2019-02-26T07:40:16.064Z,26.60
2019-02-26T07:42:46.756Z,27.93
2019-02-26T07:45:19.693Z,29.87
2019-02-26T07:47:48.493Z,25.50
2019-02-26T07:50:17.948Z,24.30
2019-02-26T07:52:47.868Z,23.47
2019-02-26T07:55:17.662Z,21.67
2019-02-26T07:57:48.914Z,29.02
2019-02-26T08:00:19.281Z,21.12
2019-02-26T08:02:48.200Z,21.87
2019-02-26T08:05:19.299Z,24.30
2019-02-26T08:07:51.157Z,19.15
2019-02-26T08:10:19.715Z,21.20
2019-02-26T08:12:48.741Z,21.43
2019-02-26T08:15:17.748Z,22.37
2019-02-26T08:17:50.207Z,21.02
2019-02-26T08:20:17.919Z,23.27
2019-02-26T08:22:46.760Z,19.40
2019-02-26T08:25:15.999Z,20.02
2019-02-26T08:27:45.197Z,18.67
2019-02-26T08:30:18.829Z,17.70
2019-02-26T08:32:51.141Z,18.05
2019-02-26T08:35:18.870Z,20.80
2019-02-26T08:37:48.023Z,18.70
2019-02-26T08:40:17.037Z,16.75
2019-02-26T08:42:46.143Z,18.27
2019-02-26T08:45:20.398Z,18.73
2019-02-26T08:47:48.751Z,19.95
2019-02-26T08:50:17.776Z,18.02
2019-02-26T08:52:49.858Z,19.75
2019-02-26T08:55:21.267Z,18.77
2019-02-26T08:57:51.297Z,18.48
2019-02-26T09:00:19.376Z,21.82
2019-02-26T09:02:53.566Z,20.50
2019-02-26T09:05:19.305Z,23.12
2019-02-26T09:07:50.601Z,23.13
2019-02-26T09:10:21.277Z,21.02
2019-02-26T09:12:51.936Z,18.95
2019-02-26T09:15:21.145Z,19.95
2019-02-26T09:17:50.131Z,20.10
2019-02-26T09:20:19.628Z,19.87
2019-02-26T09:22:50.887Z,20.43
2019-02-26T09:25:23.150Z,20.05
2019-02-26T09:27:50.756Z,19.37
2019-02-26T09:30:20.259Z,20.37
2019-02-26T09:32:49.207Z,18.77
2019-02-26T09:35:21.823Z,17.00
2019-02-26T09:37:50.598Z,19.80
2019-02-26T09:40:23.111Z,21.07
2019-02-26T09:42:53.807Z,19.20
2019-02-26T09:45:25.386Z,19.00
2019-02-26T09:47:54.880Z,17.55
2019-02-26T09:50:23.171Z,16.93
2019-02-26T09:52:53.439Z,17.02
2019-02-26T09:55:22.807Z,17.27
2019-02-26T09:57:51.795Z,16.55
2019-02-26T10:00:23.637Z,19.13
2019-02-26T10:02:52.058Z,21.17
2019-02-26T10:05:21.243Z,21.12
2019-02-26T10:07:52.280Z,18.30
2019-02-26T10:10:20.884Z,18.75
2019-02-26T10:12:51.777Z,17.75
2019-02-26T10:15:20.477Z,17.92
2019-02-26T10:17:49.492Z,19.17
2019-02-26T10:20:20.722Z,18.35
2019-02-26T10:22:52.483Z,18.07
2019-02-26T10:25:23.403Z,16.17
2019-02-26T10:27:51.579Z,16.75
2019-02-26T10:30:20.632Z,17.50
2019-02-26T10:32:50.512Z,18.57
2019-02-26T10:35:21.337Z,19.27
2019-02-26T10:37:52.077Z,17.73
2019-02-26T10:40:21.404Z,18.23
2019-02-26T10:42:50.429Z,17.27
2019-02-26T10:45:21.676Z,16.20
2019-02-26T10:47:51.263Z,16.25
2019-02-26T10:50:22.832Z,17.85
2019-02-26T10:52:57.672Z,17.23
2019-02-26T10:55:30.498Z,18.12
2019-02-26T10:57:55.389Z,19.90
2019-02-26T11:00:28.037Z,16.75
2019-02-26T11:02:57.472Z,20.15
2019-02-26T11:05:26.741Z,19.07
2019-02-26T11:07:59.799Z,17.62
2019-02-26T11:10:26.642Z,19.92
2019-02-26T11:12:58.601Z,16.75
2019-02-26T11:15:27.636Z,17.37
2019-02-26T11:17:56.980Z,18.20
2019-02-26T11:20:30.046Z,15.93
2019-02-26T11:22:56.890Z,15.43
2019-02-26T11:25:27.414Z,15.50
2019-02-26T11:27:56.788Z,14.90
2019-02-26T11:30:31.576Z,16.87
2019-02-26T11:33:02.495Z,14.60
2019-02-26T11:35:30.045Z,15.98
2019-02-26T11:37:58.960Z,13.65
2019-02-26T11:40:30.536Z,13.70
2019-02-26T11:43:00.132Z,14.53
2019-02-26T11:45:29.509Z,14.28
2019-02-26T11:48:01.099Z,14.55
2019-02-26T11:50:29.541Z,14.05
2019-02-26T11:52:58.892Z,14.83
2019-02-26T11:55:31.283Z,14.10
2019-02-26T11:57:58.745Z,17.95
2019-02-26T12:00:50.653Z,14.05
2019-02-26T12:03:22.821Z,13.22
2019-02-26T12:05:50.816Z,16.42
2019-02-26T12:08:22.333Z,12.73
2019-02-26T12:10:52.320Z,13.65
2019-02-26T12:13:22.366Z,14.95
2019-02-26T12:15:52.277Z,13.10
2019-02-26T12:18:22.472Z,13.13
2019-02-26T12:20:51.473Z,16.12
2019-02-26T12:23:22.745Z,14.65
2019-02-26T12:25:53.575Z,15.10
2019-02-26T12:28:21.821Z,14.10
2019-02-26T12:30:50.841Z,12.13
2019-02-26T12:33:19.764Z,11.17
2019-02-26T12:35:48.814Z,11.20
2019-02-26T12:38:21.299Z,14.07
2019-02-26T12:40:50.765Z,13.25
2019-02-26T12:43:19.386Z,10.32
2019-02-26T12:45:48.420Z,10.55
2019-02-26T12:48:20.221Z,12.33
2019-02-26T12:50:48.080Z,11.38
2019-02-26T12:53:18.044Z,10.82
2019-02-26T12:55:47.900Z,11.22
2019-02-26T12:58:18.675Z,11.25
2019-02-26T13:00:47.628Z,13.03
2019-02-26T13:03:19.749Z,11.15
2019-02-26T13:05:49.195Z,16.90
2019-02-26T13:08:19.776Z,14.40
2019-02-26T13:10:51.520Z,13.40
2019-02-26T13:13:20.241Z,14.47
2019-02-26T13:15:49.268Z,10.08
2019-02-26T13:18:18.176Z,13.13
2019-02-26T13:20:52.049Z,14.53
2019-02-26T13:23:20.603Z,11.65
2019-02-26T13:25:48.843Z,11.33
2019-02-26T13:28:17.693Z,15.23
2019-02-26T13:30:46.636Z,16.20
2019-02-26T13:33:17.842Z,15.93
2019-02-26T13:35:50.739Z,12.35
2019-02-26T13:38:24.237Z,11.20
2019-02-26T13:40:48.028Z,17.82
2019-02-26T13:43:17.044Z,8.35
2019-02-26T13:45:46.036Z,10.65
2019-02-26T13:48:15.025Z,8.88
2019-02-26T13:50:44.108Z,7.45
2019-02-26T13:53:13.792Z,5.12
2019-02-26T13:55:42.735Z,6.70
2019-02-26T13:58:12.254Z,8.85
2019-02-26T14:00:41.431Z,11.83
2019-02-26T14:03:10.442Z,8.95
2019-02-26T14:05:39.346Z,10.58
2019-02-26T14:08:08.636Z,8.18
2019-02-26T14:10:37.708Z,13.40
2019-02-26T14:13:06.721Z,7.93
2019-02-26T14:15:36.158Z,22.65
2019-02-26T14:18:05.240Z,14.30
2019-02-26T14:20:34.267Z,14.45
2019-02-26T14:23:03.272Z,5.30
2019-02-26T14:25:32.281Z,21.07
2019-02-26T14:28:01.393Z,10.63
2019-02-26T14:30:30.425Z,9.25
2019-02-26T14:32:59.494Z,13.83
2019-02-26T14:35:28.790Z,7.42
2019-02-26T14:37:58.082Z,7.83
2019-02-26T14:40:27.073Z,6.35
2019-02-26T14:42:55.924Z,9.63
2019-02-26T14:45:24.920Z,15.28
2019-02-26T14:47:53.989Z,20.08
2019-02-26T14:50:23.029Z,19.27
2019-02-26T14:52:52.297Z,11.03
2019-02-26T14:55:21.363Z,10.75
2019-02-26T14:57:50.425Z,36.63
2019-02-26T15:00:26.920Z,21.57
2019-02-26T15:02:56.352Z,11.60
2019-02-26T15:05:25.374Z,12.28
2019-02-26T15:07:54.682Z,11.80
2019-02-26T15:10:23.701Z,14.50
2019-02-26T15:12:52.744Z,13.62
2019-02-26T15:15:21.820Z,15.83
2019-02-26T15:17:51.216Z,13.75
2019-02-26T15:20:20.251Z,17.85
2019-02-26T15:22:49.322Z,13.53
2019-02-26T15:25:22.245Z,12.15
2019-02-26T15:27:51.257Z,14.43
2019-02-26T15:30:20.459Z,13.38
2019-02-26T15:32:49.483Z,14.55
2019-02-26T15:35:18.729Z,13.05
2019-02-26T15:37:47.836Z,17.32
2019-02-26T15:40:16.880Z,13.38
2019-02-26T15:42:45.918Z,12.33
2019-02-26T15:45:17.321Z,12.47
2019-02-26T15:47:46.282Z,13.95
2019-02-26T15:50:15.613Z,15.03
2019-02-26T15:52:44.713Z,17.90
2019-02-26T15:55:16.270Z,18.57
2019-02-26T15:57:45.332Z,17.98
2019-02-26T16:00:18.716Z,17.27
2019-02-26T16:02:48.841Z,14.78
2019-02-26T16:05:18.056Z,17.42
2019-02-26T16:07:47.332Z,15.32
2019-02-26T16:10:16.454Z,14.70
2019-02-26T16:12:45.556Z,13.85
2019-02-26T16:15:14.615Z,15.50
2019-02-26T16:17:43.963Z,16.73
2019-02-26T16:20:14.928Z,18.57
2019-02-26T16:22:44.194Z,18.82
2019-02-26T16:25:13.212Z,18.42
2019-02-26T16:27:42.210Z,17.73
2019-02-26T16:30:17.847Z,19.73
2019-02-26T16:32:48.853Z,18.73
2019-02-26T16:35:17.733Z,17.57
2019-02-26T16:37:46.804Z,17.07
2019-02-26T16:40:15.876Z,14.53
2019-02-26T16:42:45.143Z,18.48
2019-02-26T16:45:16.468Z,17.25
2019-02-26T16:47:46.000Z,18.85
2019-02-26T16:50:17.698Z,18.70
2019-02-26T16:52:46.744Z,19.15
2019-02-26T16:55:17.260Z,22.30
2019-02-26T16:57:46.792Z,19.82
2019-02-26T17:00:17.969Z,16.20
2019-02-26T17:02:47.360Z,15.60
2019-02-26T17:05:16.372Z,17.20
2019-02-26T17:07:45.688Z,20.02
2019-02-26T17:10:16.625Z,19.80
2019-02-26T17:12:48.944Z,26.25
2019-02-26T17:15:24.005Z,25.32
2019-02-26T17:17:50.347Z,29.15
2019-02-26T17:20:19.607Z,23.15
2019-02-26T17:22:50.360Z,24.98
2019-02-26T17:25:19.280Z,18.17
2019-02-26T17:27:48.288Z,22.25
2019-02-26T17:30:17.370Z,19.95
2019-02-26T17:32:46.415Z,26.00
2019-02-26T17:35:16.325Z,21.07
2019-02-26T17:37:45.450Z,23.05
2019-02-26T17:40:15.389Z,30.90
2019-02-26T17:42:44.500Z,26.65
2019-02-26T17:45:14.876Z,26.77
2019-02-26T17:47:43.896Z,24.32
2019-02-26T17:50:19.468Z,29.18
2019-02-26T17:52:48.412Z,22.58
2019-02-26T17:55:17.420Z,27.77
2019-02-26T17:57:46.493Z,31.50
2019-02-26T18:00:17.363Z,39.75
2019-02-26T18:02:46.671Z,31.93
2019-02-26T18:05:15.787Z,30.12
2019-02-26T18:07:44.720Z,30.43
2019-02-26T18:10:15.227Z,28.20
2019-02-26T18:12:44.260Z,36.00
2019-02-26T18:15:16.582Z,27.87
2019-02-26T18:17:44.304Z,29.98
2019-02-26T18:20:16.407Z,21.07
2019-02-26T18:22:45.468Z,18.98
2019-02-26T18:25:15.214Z,24.02
2019-02-26T18:27:44.204Z,25.23
2019-02-26T18:30:16.180Z,23.73
2019-02-26T18:32:50.300Z,24.63
2019-02-26T18:35:16.217Z,23.60
2019-02-26T18:37:46.708Z,22.55
2019-02-26T18:40:16.240Z,25.25
2019-02-26T18:42:45.352Z,26.57
2019-02-26T18:45:16.965Z,20.82
2019-02-26T18:47:47.597Z,27.35
2019-02-26T18:50:16.847Z,33.33
2019-02-26T18:52:45.798Z,29.40
2019-02-26T18:55:15.636Z,26.27
2019-02-26T18:57:44.598Z,21.43
2019-02-26T19:00:19.225Z,27.67
2019-02-26T19:02:48.276Z,23.90
2019-02-26T19:05:20.655Z,22.00
2019-02-26T19:07:48.245Z,23.20
2019-02-26T19:10:20.667Z,24.65
2019-02-26T19:12:48.460Z,25.53
2019-02-26T19:15:18.421Z,22.35
2019-02-26T19:17:49.202Z,22.98
2019-02-26T19:20:19.990Z,23.22
2019-02-26T19:22:49.041Z,25.45
2019-02-26T19:25:18.125Z,28.02
2019-02-26T19:27:47.100Z,26.05
2019-02-26T19:30:17.390Z,23.27
2019-02-26T19:32:47.761Z,27.25
2019-02-26T19:35:17.073Z,29.75
2019-02-26T19:37:46.504Z,30.40
2019-02-26T19:40:17.510Z,31.82
2019-02-26T19:42:46.460Z,25.52
2019-02-26T19:45:15.714Z,25.75
2019-02-26T19:47:44.732Z,26.10
2019-02-26T19:50:14.780Z,26.68
2019-02-26T19:52:44.029Z,26.15
2019-02-26T19:55:16.412Z,31.45
2019-02-26T19:57:45.440Z,24.47
2019-02-26T20:00:14.633Z,29.25
2019-02-26T20:02:43.640Z,36.68
2019-02-26T20:05:13.276Z,32.15
2019-02-26T20:07:42.288Z,34.20
2019-02-26T20:10:12.867Z,25.85
2019-02-26T20:12:43.629Z,23.35
2019-02-26T20:15:13.624Z,30.60
2019-02-26T20:17:42.668Z,24.57
2019-02-26T20:20:12.689Z,27.98
2019-02-26T20:22:41.627Z,26.60
2019-02-26T20:25:13.011Z,26.02
2019-02-26T20:27:42.273Z,31.90
2019-02-26T20:30:15.062Z,26.17
2019-02-26T20:32:43.935Z,31.00
2019-02-26T20:35:13.081Z,31.05
2019-02-26T20:37:42.173Z,28.52
2019-02-26T20:40:16.904Z,25.82
2019-02-26T20:42:45.887Z,30.02
2019-02-26T20:45:18.181Z,27.10
2019-02-26T20:47:47.053Z,28.00
2019-02-26T20:50:20.135Z,23.80
2019-02-26T20:52:47.392Z,24.60
2019-02-26T20:55:19.241Z,22.62
2019-02-26T20:57:48.552Z,23.25
2019-02-26T21:00:18.501Z,24.55
2019-02-26T21:02:47.654Z,25.40
2019-02-26T21:05:16.672Z,24.20
2019-02-26T21:07:45.679Z,21.17
2019-02-26T21:10:15.916Z,23.83
2019-02-26T21:12:45.032Z,23.40
2019-02-26T21:15:15.740Z,23.38
2019-02-26T21:17:44.833Z,22.93
2019-02-26T21:20:14.009Z,22.17
2019-02-26T21:22:43.047Z,21.60
2019-02-26T21:25:12.158Z,23.18
2019-02-26T21:27:41.667Z,19.77
2019-02-26T21:30:13.777Z,21.80
2019-02-26T21:32:42.808Z,23.40
2019-02-26T21:35:12.092Z,20.40
2019-02-26T21:37:41.054Z,22.60
2019-02-26T21:40:11.031Z,20.23
2019-02-26T21:42:40.065Z,21.80
2019-02-26T21:45:10.412Z,20.70
2019-02-26T21:47:39.731Z,22.45
2019-02-26T21:50:09.743Z,25.90
2019-02-26T21:52:41.816Z,19.30
2019-02-26T21:55:09.660Z,21.62
2019-02-26T21:57:38.701Z,22.25
2019-02-26T22:00:11.605Z,19.77
2019-02-26T22:02:40.598Z,22.73
2019-02-26T22:05:09.689Z,20.12
2019-02-26T22:07:38.701Z,21.25
2019-02-26T22:10:09.055Z,22.62
2019-02-26T22:12:37.987Z,21.23
2019-02-26T22:15:10.162Z,22.00
2019-02-26T22:17:37.981Z,21.70
2019-02-26T22:20:09.273Z,22.67
2019-02-26T22:22:38.439Z,23.12
2019-02-26T22:25:09.946Z,25.60
2019-02-26T22:27:38.325Z,23.77
2019-02-26T22:30:10.257Z,20.27
2019-02-26T22:32:39.525Z,25.17
2019-02-26T22:35:08.979Z,22.35
2019-02-26T22:37:38.929Z,19.82
2019-02-26T22:40:09.693Z,21.45
2019-02-26T22:42:41.334Z,21.15
2019-02-26T22:45:10.128Z,20.88
2019-02-26T22:47:40.563Z,19.50
2019-02-26T22:50:11.252Z,19.85
2019-02-26T22:52:40.167Z,23.55
2019-02-26T22:55:10.412Z,24.18
2019-02-26T22:57:39.344Z,21.05
2019-02-26T23:00:24.884Z,22.90
2019-02-26T23:02:53.888Z,20.82
2019-02-26T23:05:25.407Z,21.07
2019-02-26T23:07:53.884Z,19.82
2019-02-26T23:10:24.700Z,21.17
2019-02-26T23:12:53.670Z,19.98
2019-02-26T23:15:29.368Z,19.90
2019-02-26T23:17:58.964Z,20.92
2019-02-26T23:20:31.041Z,20.97
2019-02-26T23:23:01.310Z,23.35
2019-02-26T23:25:36.055Z,20.52
2019-02-26T23:28:08.885Z,19.03
2019-02-26T23:30:38.512Z,21.85
2019-02-26T23:33:08.110Z,22.55
2019-02-26T23:35:37.221Z,22.87
2019-02-26T23:38:08.530Z,25.97
2019-02-26T23:40:37.066Z,23.32
2019-02-26T23:43:11.721Z,22.17
2019-02-26T23:45:37.254Z,24.87
2019-02-26T23:48:08.077Z,23.70
2019-02-26T23:50:37.146Z,23.98
2019-02-26T23:53:07.404Z,23.45
2019-02-26T23:55:36.410Z,21.33
2019-02-26T23:58:05.413Z,19.62
